sensor_id;sensor_type;location;lat;lon;timestamp;P1;durP1;ratioP1;P2;durP2;ratioP2
1014;SDS011;8170;48.118;11.628;2022-12-10T00:00:07;44.05;;;28.80;;
1014;SDS011;8170;48.118;11.628;2022-12-10T00:01:13;40.95;;;30.35;;
1014;SDS011;8170;48.118;11.628;2022-12-10T00:02:17;45.13;;;32.58;;
1014;SDS011;8170;48.118;11.628;2022-12-10T00:03:20;50.60;;;33.72;;
1014;SDS011;8170;48.118;11.628;2022-12-10T00:04:22;45.72;;;31.50;;
1014;SDS011;8170;48.118;11.628;2022-12-10T00:05:26;46.08;;;33.55;;
1014;SDS011;8170;48.118;11.628;2022-12-10T00:06:29;42.85;;;29.45;;
1014;SDS011;8170;48.118;11.628;2022-12-10T00:07:33;48.88;;;30.23;;
1014;SDS011;8170;48.118;11.628;2022-12-10T00:08:36;39.53;;;26.90;;
1014;SDS011;8170;48.118;11.628;2022-12-10T00:09:39;43.05;;;29.88;;
1014;SDS011;8170;48.118;11.628;2022-12-10T00:10:43;48.05;;;32.03;;
1014;SDS011;8170;48.118;11.628;2022-12-10T00:11:45;40.17;;;28.42;;
1014;SDS011;8170;48.118;11.628;2022-12-10T00:12:48;46.95;;;32.53;;
1014;SDS011;8170;48.118;11.628;2022-12-10T00:13:52;49.08;;;33.20;;
1014;SDS011;8170;48.118;11.628;2022-12-10T00:15:17;39.47;;;29.13;;
1014;SDS011;8170;48.118;11.628;2022-12-10T00:16:22;45.22;;;33.47;;
1014;SDS011;8170;48.118;11.628;2022-12-10T00:17:25;45.08;;;32.92;;
1014;SDS011;8170;48.118;11.628;2022-12-10T00:18:29;39.17;;;29.13;;
1014;SDS011;8170;48.118;11.628;2022-12-10T00:19:31;35.70;;;25.80;;
1014;SDS011;8170;48.118;11.628;2022-12-10T00:20:35;38.00;;;25.23;;
1014;SDS011;8170;48.118;11.628;2022-12-10T00:21:38;40.72;;;28.33;;
1014;SDS011;8170;48.118;11.628;2022-12-10T00:22:41;45.15;;;31.83;;
1014;SDS011;8170;48.118;11.628;2022-12-10T00:23:44;43.95;;;30.83;;
1014;SDS011;8170;48.118;11.628;2022-12-10T00:24:49;50.90;;;34.00;;
1014;SDS011;8170;48.118;11.628;2022-12-10T00:25:52;46.35;;;31.85;;
1014;SDS011;8170;48.118;11.628;2022-12-10T00:26:55;49.63;;;32.80;;
1014;SDS011;8170;48.118;11.628;2022-12-10T00:27:58;42.75;;;31.08;;
1014;SDS011;8170;48.118;11.628;2022-12-10T00:29:03;46.88;;;32.22;;
1014;SDS011;8170;48.118;11.628;2022-12-10T00:30:15;46.90;;;32.22;;
1014;SDS011;8170;48.118;11.628;2022-12-10T00:31:36;44.83;;;32.80;;
1014;SDS011;8170;48.118;11.628;2022-12-10T00:32:48;38.38;;;28.00;;
1014;SDS011;8170;48.118;11.628;2022-12-10T00:33:52;38.03;;;26.25;;
1014;SDS011;8170;48.118;11.628;2022-12-10T00:34:55;34.33;;;25.15;;
1014;SDS011;8170;48.118;11.628;2022-12-10T00:36:02;48.22;;;31.02;;
1014;SDS011;8170;48.118;11.628;2022-12-10T00:37:05;43.35;;;30.35;;
1014;SDS011;8170;48.118;11.628;2022-12-10T00:38:16;39.88;;;28.75;;
1014;SDS011;8170;48.118;11.628;2022-12-10T00:39:22;40.17;;;26.77;;
1014;SDS011;8170;48.118;11.628;2022-12-10T00:40:27;38.00;;;27.02;;
1014;SDS011;8170;48.118;11.628;2022-12-10T00:41:30;39.25;;;27.85;;
1014;SDS011;8170;48.118;11.628;2022-12-10T00:42:35;39.05;;;26.77;;
1014;SDS011;8170;48.118;11.628;2022-12-10T00:43:37;40.13;;;28.25;;
1014;SDS011;8170;48.118;11.628;2022-12-10T00:44:42;36.30;;;27.33;;
1014;SDS011;8170;48.118;11.628;2022-12-10T00:45:45;43.35;;;28.13;;
1014;SDS011;8170;48.118;11.628;2022-12-10T00:46:52;36.65;;;26.20;;
1014;SDS011;8170;48.118;11.628;2022-12-10T00:47:55;36.65;;;26.05;;
1014;SDS011;8170;48.118;11.628;2022-12-10T00:48:58;34.28;;;25.73;;
1014;SDS011;8170;48.118;11.628;2022-12-10T00:50:02;37.95;;;27.90;;
1014;SDS011;8170;48.118;11.628;2022-12-10T00:51:06;38.72;;;27.45;;
1014;SDS011;8170;48.118;11.628;2022-12-10T00:52:12;41.85;;;28.35;;
1014;SDS011;8170;48.118;11.628;2022-12-10T00:53:14;39.55;;;28.48;;
1014;SDS011;8170;48.118;11.628;2022-12-10T00:54:18;41.13;;;29.40;;
1014;SDS011;8170;48.118;11.628;2022-12-10T00:55:21;38.28;;;29.15;;
1014;SDS011;8170;48.118;11.628;2022-12-10T00:56:29;44.85;;;30.15;;
1014;SDS011;8170;48.118;11.628;2022-12-10T00:57:33;40.58;;;29.38;;
1014;SDS011;8170;48.118;11.628;2022-12-10T00:58:36;43.30;;;29.63;;
1014;SDS011;8170;48.118;11.628;2022-12-10T00:59:42;47.00;;;30.73;;
1014;SDS011;8170;48.118;11.628;2022-12-10T01:00:47;42.45;;;29.50;;
1014;SDS011;8170;48.118;11.628;2022-12-10T01:01:51;43.97;;;30.77;;
1014;SDS011;8170;48.118;11.628;2022-12-10T01:02:54;45.78;;;30.50;;
1014;SDS011;8170;48.118;11.628;2022-12-10T01:03:58;41.90;;;28.20;;
1014;SDS011;8170;48.118;11.628;2022-12-10T01:05:06;40.45;;;28.77;;
1014;SDS011;8170;48.118;11.628;2022-12-10T01:06:11;48.30;;;31.85;;
1014;SDS011;8170;48.118;11.628;2022-12-10T01:07:15;48.72;;;32.28;;
1014;SDS011;8170;48.118;11.628;2022-12-10T01:08:18;44.63;;;32.72;;
1014;SDS011;8170;48.118;11.628;2022-12-10T01:09:21;49.08;;;32.40;;
1014;SDS011;8170;48.118;11.628;2022-12-10T01:10:27;49.67;;;34.78;;
1014;SDS011;8170;48.118;11.628;2022-12-10T01:11:31;46.50;;;32.75;;
1014;SDS011;8170;48.118;11.628;2022-12-10T01:12:36;49.28;;;34.10;;
1014;SDS011;8170;48.118;11.628;2022-12-10T01:13:38;50.85;;;34.20;;
1014;SDS011;8170;48.118;11.628;2022-12-10T01:14:44;44.03;;;30.88;;
1014;SDS011;8170;48.118;11.628;2022-12-10T01:15:46;43.13;;;29.20;;
1014;SDS011;8170;48.118;11.628;2022-12-10T01:16:49;51.05;;;34.17;;
1014;SDS011;8170;48.118;11.628;2022-12-10T01:17:54;36.72;;;26.73;;
1014;SDS011;8170;48.118;11.628;2022-12-10T01:18:57;36.25;;;27.33;;
1014;SDS011;8170;48.118;11.628;2022-12-10T01:20:00;41.40;;;29.67;;
1014;SDS011;8170;48.118;11.628;2022-12-10T01:21:04;41.35;;;28.75;;
1014;SDS011;8170;48.118;11.628;2022-12-10T01:22:08;43.65;;;29.75;;
1014;SDS011;8170;48.118;11.628;2022-12-10T01:23:11;43.70;;;31.00;;
1014;SDS011;8170;48.118;11.628;2022-12-10T01:24:14;47.60;;;31.63;;
1014;SDS011;8170;48.118;11.628;2022-12-10T01:25:18;54.47;;;34.08;;
1014;SDS011;8170;48.118;11.628;2022-12-10T01:26:20;51.05;;;33.25;;
1014;SDS011;8170;48.118;11.628;2022-12-10T01:27:25;52.05;;;33.13;;
1014;SDS011;8170;48.118;11.628;2022-12-10T01:28:30;48.88;;;31.35;;
1014;SDS011;8170;48.118;11.628;2022-12-10T01:29:34;53.45;;;35.78;;
1014;SDS011;8170;48.118;11.628;2022-12-10T01:30:37;53.20;;;32.80;;
1014;SDS011;8170;48.118;11.628;2022-12-10T01:31:43;60.83;;;36.55;;
1014;SDS011;8170;48.118;11.628;2022-12-10T01:32:49;55.40;;;34.67;;
1014;SDS011;8170;48.118;11.628;2022-12-10T01:33:53;52.97;;;32.95;;
1014;SDS011;8170;48.118;11.628;2022-12-10T01:34:57;53.38;;;32.05;;
1014;SDS011;8170;48.118;11.628;2022-12-10T01:36:01;56.03;;;33.88;;
1014;SDS011;8170;48.118;11.628;2022-12-10T01:37:07;55.90;;;34.50;;
1014;SDS011;8170;48.118;11.628;2022-12-10T01:38:12;54.00;;;34.05;;
1014;SDS011;8170;48.118;11.628;2022-12-10T01:39:15;59.60;;;35.40;;
1014;SDS011;8170;48.118;11.628;2022-12-10T01:40:19;57.88;;;34.35;;
1014;SDS011;8170;48.118;11.628;2022-12-10T01:41:22;58.92;;;33.67;;
1014;SDS011;8170;48.118;11.628;2022-12-10T01:43:53;57.88;;;34.55;;
1014;SDS011;8170;48.118;11.628;2022-12-10T01:45:02;59.00;;;36.85;;
1014;SDS011;8170;48.118;11.628;2022-12-10T01:46:08;61.15;;;36.17;;
1014;SDS011;8170;48.118;11.628;2022-12-10T01:47:12;60.55;;;36.17;;
1014;SDS011;8170;48.118;11.628;2022-12-10T01:48:14;50.83;;;31.83;;
1014;SDS011;8170;48.118;11.628;2022-12-10T01:49:18;53.53;;;30.88;;
1014;SDS011;8170;48.118;11.628;2022-12-10T01:50:22;58.55;;;34.30;;
1014;SDS011;8170;48.118;11.628;2022-12-10T01:51:26;54.35;;;33.97;;
1014;SDS011;8170;48.118;11.628;2022-12-10T01:52:31;62.40;;;37.28;;
1014;SDS011;8170;48.118;11.628;2022-12-10T01:53:34;63.08;;;35.03;;
1014;SDS011;8170;48.118;11.628;2022-12-10T01:54:38;54.60;;;34.63;;
1014;SDS011;8170;48.118;11.628;2022-12-10T01:55:46;65.05;;;36.65;;
1014;SDS011;8170;48.118;11.628;2022-12-10T01:56:51;66.43;;;38.13;;
1014;SDS011;8170;48.118;11.628;2022-12-10T01:58:00;60.67;;;35.42;;
1014;SDS011;8170;48.118;11.628;2022-12-10T01:59:02;52.75;;;32.78;;
1014;SDS011;8170;48.118;11.628;2022-12-10T02:00:08;61.40;;;35.22;;
1014;SDS011;8170;48.118;11.628;2022-12-10T02:01:21;58.70;;;34.25;;
1014;SDS011;8170;48.118;11.628;2022-12-10T02:02:37;61.95;;;35.70;;
1014;SDS011;8170;48.118;11.628;2022-12-10T02:03:51;56.63;;;33.30;;
1014;SDS011;8170;48.118;11.628;2022-12-10T02:05:07;56.90;;;33.05;;
1014;SDS011;8170;48.118;11.628;2022-12-10T02:08:08;57.05;;;34.08;;
1014;SDS011;8170;48.118;11.628;2022-12-10T02:10:06;58.53;;;33.38;;
1014;SDS011;8170;48.118;11.628;2022-12-10T02:14:53;53.10;;;30.70;;
1014;SDS011;8170;48.118;11.628;2022-12-10T02:16:21;58.35;;;33.35;;
1014;SDS011;8170;48.118;11.628;2022-12-10T02:17:38;51.40;;;31.30;;
1014;SDS011;8170;48.118;11.628;2022-12-10T02:18:55;57.75;;;31.75;;
1014;SDS011;8170;48.118;11.628;2022-12-10T02:20:05;56.60;;;32.33;;
1014;SDS011;8170;48.118;11.628;2022-12-10T02:21:16;55.50;;;32.05;;
1014;SDS011;8170;48.118;11.628;2022-12-10T02:22:27;50.80;;;30.58;;
1014;SDS011;8170;48.118;11.628;2022-12-10T02:23:57;57.33;;;32.67;;
1014;SDS011;8170;48.118;11.628;2022-12-10T02:25:07;51.35;;;31.90;;
1014;SDS011;8170;48.118;11.628;2022-12-10T02:26:18;54.60;;;31.80;;
1014;SDS011;8170;48.118;11.628;2022-12-10T02:27:31;46.40;;;29.77;;
1014;SDS011;8170;48.118;11.628;2022-12-10T02:29:08;47.65;;;30.27;;
1014;SDS011;8170;48.118;11.628;2022-12-10T02:30:15;47.38;;;29.50;;
1014;SDS011;8170;48.118;11.628;2022-12-10T02:31:21;53.05;;;31.73;;
1014;SDS011;8170;48.118;11.628;2022-12-10T02:32:35;50.08;;;31.10;;
1014;SDS011;8170;48.118;11.628;2022-12-10T02:33:46;50.00;;;32.70;;
1014;SDS011;8170;48.118;11.628;2022-12-10T02:34:57;47.90;;;30.65;;
1014;SDS011;8170;48.118;11.628;2022-12-10T02:36:08;47.92;;;31.20;;
1014;SDS011;8170;48.118;11.628;2022-12-10T02:37:22;51.42;;;31.33;;
1014;SDS011;8170;48.118;11.628;2022-12-10T02:38:35;49.90;;;31.90;;
1014;SDS011;8170;48.118;11.628;2022-12-10T02:39:46;55.05;;;33.08;;
1014;SDS011;8170;48.118;11.628;2022-12-10T02:40:54;49.05;;;32.33;;
1014;SDS011;8170;48.118;11.628;2022-12-10T02:42:04;46.67;;;29.80;;
1014;SDS011;8170;48.118;11.628;2022-12-10T02:43:20;50.33;;;31.38;;
1014;SDS011;8170;48.118;11.628;2022-12-10T02:44:35;53.75;;;31.63;;
1014;SDS011;8170;48.118;11.628;2022-12-10T02:45:45;53.85;;;34.05;;
1014;SDS011;8170;48.118;11.628;2022-12-10T02:46:57;45.58;;;29.02;;
1014;SDS011;8170;48.118;11.628;2022-12-10T02:48:11;53.35;;;31.52;;
1014;SDS011;8170;48.118;11.628;2022-12-10T02:49:22;52.35;;;32.25;;
1014;SDS011;8170;48.118;11.628;2022-12-10T02:50:26;49.20;;;30.35;;
1014;SDS011;8170;48.118;11.628;2022-12-10T02:51:38;48.15;;;31.77;;
1014;SDS011;8170;48.118;11.628;2022-12-10T02:52:46;45.22;;;29.92;;
1014;SDS011;8170;48.118;11.628;2022-12-10T02:53:58;52.13;;;32.78;;
1014;SDS011;8170;48.118;11.628;2022-12-10T02:55:14;45.88;;;28.60;;
1014;SDS011;8170;48.118;11.628;2022-12-10T02:56:26;49.20;;;30.60;;
1014;SDS011;8170;48.118;11.628;2022-12-10T02:57:36;57.10;;;31.30;;
1014;SDS011;8170;48.118;11.628;2022-12-10T02:58:57;46.13;;;29.58;;
1014;SDS011;8170;48.118;11.628;2022-12-10T03:00:14;46.90;;;29.30;;
1014;SDS011;8170;48.118;11.628;2022-12-10T03:01:27;46.10;;;29.80;;
1014;SDS011;8170;48.118;11.628;2022-12-10T03:02:54;42.78;;;28.38;;
1014;SDS011;8170;48.118;11.628;2022-12-10T03:04:25;47.88;;;29.83;;
1014;SDS011;8170;48.118;11.628;2022-12-10T03:05:45;57.47;;;34.85;;
1014;SDS011;8170;48.118;11.628;2022-12-10T03:06:55;52.72;;;31.45;;
1014;SDS011;8170;48.118;11.628;2022-12-10T03:08:07;49.30;;;30.83;;
1014;SDS011;8170;48.118;11.628;2022-12-10T03:09:17;51.15;;;32.60;;
1014;SDS011;8170;48.118;11.628;2022-12-10T03:10:24;49.45;;;30.75;;
1014;SDS011;8170;48.118;11.628;2022-12-10T03:11:46;46.83;;;29.65;;
1014;SDS011;8170;48.118;11.628;2022-12-10T03:12:57;50.65;;;31.77;;
1014;SDS011;8170;48.118;11.628;2022-12-10T03:14:07;48.63;;;30.52;;
1014;SDS011;8170;48.118;11.628;2022-12-10T03:15:16;52.33;;;33.05;;
1014;SDS011;8170;48.118;11.628;2022-12-10T03:16:26;48.80;;;30.63;;
1014;SDS011;8170;48.118;11.628;2022-12-10T03:17:33;50.45;;;31.98;;
1014;SDS011;8170;48.118;11.628;2022-12-10T03:18:45;49.83;;;30.40;;
1014;SDS011;8170;48.118;11.628;2022-12-10T03:19:56;60.78;;;34.67;;
1014;SDS011;8170;48.118;11.628;2022-12-10T03:21:09;50.05;;;30.48;;
1014;SDS011;8170;48.118;11.628;2022-12-10T03:22:13;47.47;;;30.80;;
1014;SDS011;8170;48.118;11.628;2022-12-10T03:23:23;50.10;;;31.48;;
1014;SDS011;8170;48.118;11.628;2022-12-10T03:24:28;48.88;;;31.38;;
1014;SDS011;8170;48.118;11.628;2022-12-10T03:25:34;47.97;;;30.90;;
1014;SDS011;8170;48.118;11.628;2022-12-10T03:26:37;44.53;;;29.05;;
1014;SDS011;8170;48.118;11.628;2022-12-10T03:27:54;46.55;;;28.25;;
1014;SDS011;8170;48.118;11.628;2022-12-10T03:28:59;46.85;;;29.30;;
1014;SDS011;8170;48.118;11.628;2022-12-10T03:30:08;52.38;;;31.10;;
1014;SDS011;8170;48.118;11.628;2022-12-10T03:31:13;50.67;;;29.15;;
1014;SDS011;8170;48.118;11.628;2022-12-10T03:32:20;49.78;;;31.02;;
1014;SDS011;8170;48.118;11.628;2022-12-10T03:33:24;50.45;;;30.70;;
1014;SDS011;8170;48.118;11.628;2022-12-10T03:34:28;49.22;;;31.17;;
1014;SDS011;8170;48.118;11.628;2022-12-10T03:35:34;50.65;;;31.70;;
1014;SDS011;8170;48.118;11.628;2022-12-10T03:36:38;49.97;;;31.42;;
1014;SDS011;8170;48.118;11.628;2022-12-10T03:37:46;44.10;;;28.42;;
1014;SDS011;8170;48.118;11.628;2022-12-10T03:38:54;47.40;;;30.38;;
1014;SDS011;8170;48.118;11.628;2022-12-10T03:39:56;50.83;;;30.92;;
1014;SDS011;8170;48.118;11.628;2022-12-10T03:41:05;51.85;;;31.65;;
1014;SDS011;8170;48.118;11.628;2022-12-10T03:42:07;55.60;;;32.28;;
1014;SDS011;8170;48.118;11.628;2022-12-10T03:43:18;54.15;;;32.10;;
1014;SDS011;8170;48.118;11.628;2022-12-10T03:44:28;47.88;;;30.42;;
1014;SDS011;8170;48.118;11.628;2022-12-10T03:45:33;49.95;;;33.08;;
1014;SDS011;8170;48.118;11.628;2022-12-10T03:46:36;50.33;;;30.83;;
1014;SDS011;8170;48.118;11.628;2022-12-10T03:47:45;46.60;;;29.80;;
1014;SDS011;8170;48.118;11.628;2022-12-10T03:48:47;54.88;;;31.42;;
1014;SDS011;8170;48.118;11.628;2022-12-10T03:50:05;56.17;;;32.47;;
1014;SDS011;8170;48.118;11.628;2022-12-10T03:51:09;48.50;;;29.52;;
1014;SDS011;8170;48.118;11.628;2022-12-10T03:52:12;50.83;;;31.17;;
1014;SDS011;8170;48.118;11.628;2022-12-10T03:53:14;52.33;;;32.63;;
1014;SDS011;8170;48.118;11.628;2022-12-10T03:54:18;40.63;;;28.23;;
1014;SDS011;8170;48.118;11.628;2022-12-10T03:55:21;44.85;;;29.38;;
1014;SDS011;8170;48.118;11.628;2022-12-10T03:56:24;50.10;;;31.05;;
1014;SDS011;8170;48.118;11.628;2022-12-10T03:57:27;48.55;;;30.25;;
1014;SDS011;8170;48.118;11.628;2022-12-10T03:58:30;41.42;;;27.02;;
1014;SDS011;8170;48.118;11.628;2022-12-10T03:59:32;45.58;;;29.67;;
1014;SDS011;8170;48.118;11.628;2022-12-10T04:00:36;48.28;;;29.00;;
1014;SDS011;8170;48.118;11.628;2022-12-10T04:01:40;46.05;;;28.85;;
1014;SDS011;8170;48.118;11.628;2022-12-10T04:02:44;52.97;;;30.58;;
1014;SDS011;8170;48.118;11.628;2022-12-10T04:03:46;47.40;;;29.35;;
1014;SDS011;8170;48.118;11.628;2022-12-10T04:04:49;43.40;;;28.45;;
1014;SDS011;8170;48.118;11.628;2022-12-10T04:05:53;46.63;;;29.10;;
1014;SDS011;8170;48.118;11.628;2022-12-10T04:06:57;48.15;;;30.33;;
1014;SDS011;8170;48.118;11.628;2022-12-10T04:07:59;50.13;;;29.83;;
1014;SDS011;8170;48.118;11.628;2022-12-10T04:09:03;51.63;;;31.80;;
1014;SDS011;8170;48.118;11.628;2022-12-10T04:10:06;51.10;;;30.75;;
1014;SDS011;8170;48.118;11.628;2022-12-10T04:11:14;49.50;;;29.85;;
1014;SDS011;8170;48.118;11.628;2022-12-10T04:12:21;53.53;;;30.83;;
1014;SDS011;8170;48.118;11.628;2022-12-10T04:13:25;51.30;;;29.50;;
1014;SDS011;8170;48.118;11.628;2022-12-10T04:14:45;47.72;;;27.63;;
1014;SDS011;8170;48.118;11.628;2022-12-10T04:16:07;57.10;;;31.52;;
1014;SDS011;8170;48.118;11.628;2022-12-10T04:17:40;47.13;;;29.23;;
1014;SDS011;8170;48.118;11.628;2022-12-10T04:18:46;47.05;;;29.23;;
1014;SDS011;8170;48.118;11.628;2022-12-10T04:19:48;52.90;;;30.85;;
1014;SDS011;8170;48.118;11.628;2022-12-10T04:20:54;48.55;;;29.48;;
1014;SDS011;8170;48.118;11.628;2022-12-10T04:22:15;50.97;;;30.98;;
1014;SDS011;8170;48.118;11.628;2022-12-10T04:23:36;48.40;;;28.55;;
1014;SDS011;8170;48.118;11.628;2022-12-10T04:24:56;50.55;;;30.40;;
1014;SDS011;8170;48.118;11.628;2022-12-10T04:26:25;48.30;;;29.08;;
1014;SDS011;8170;48.118;11.628;2022-12-10T04:27:48;55.60;;;30.17;;
1014;SDS011;8170;48.118;11.628;2022-12-10T04:28:56;54.25;;;32.58;;
1014;SDS011;8170;48.118;11.628;2022-12-10T04:30:00;52.70;;;28.65;;
1014;SDS011;8170;48.118;11.628;2022-12-10T04:31:09;54.22;;;31.30;;
1014;SDS011;8170;48.118;11.628;2022-12-10T04:32:17;47.35;;;28.15;;
1014;SDS011;8170;48.118;11.628;2022-12-10T04:33:30;50.28;;;29.60;;
1014;SDS011;8170;48.118;11.628;2022-12-10T04:34:35;55.20;;;33.88;;
1014;SDS011;8170;48.118;11.628;2022-12-10T04:35:38;57.60;;;31.48;;
1014;SDS011;8170;48.118;11.628;2022-12-10T04:36:45;58.40;;;32.90;;
1014;SDS011;8170;48.118;11.628;2022-12-10T04:37:56;51.67;;;30.20;;
1014;SDS011;8170;48.118;11.628;2022-12-10T04:39:05;52.75;;;30.30;;
1014;SDS011;8170;48.118;11.628;2022-12-10T04:40:09;56.65;;;31.48;;
1014;SDS011;8170;48.118;11.628;2022-12-10T04:41:27;50.88;;;31.38;;
1014;SDS011;8170;48.118;11.628;2022-12-10T04:42:30;55.50;;;29.70;;
1014;SDS011;8170;48.118;11.628;2022-12-10T04:43:33;51.92;;;31.88;;
1014;SDS011;8170;48.118;11.628;2022-12-10T04:44:36;54.20;;;31.25;;
1014;SDS011;8170;48.118;11.628;2022-12-10T04:45:39;57.33;;;31.33;;
1014;SDS011;8170;48.118;11.628;2022-12-10T04:46:45;50.00;;;28.98;;
1014;SDS011;8170;48.118;11.628;2022-12-10T04:47:57;53.80;;;32.58;;
1014;SDS011;8170;48.118;11.628;2022-12-10T04:49:00;53.92;;;30.38;;
1014;SDS011;8170;48.118;11.628;2022-12-10T04:50:07;53.95;;;32.20;;
1014;SDS011;8170;48.118;11.628;2022-12-10T04:51:17;57.08;;;32.35;;
1014;SDS011;8170;48.118;11.628;2022-12-10T04:52:27;58.33;;;33.15;;
1014;SDS011;8170;48.118;11.628;2022-12-10T04:53:36;55.38;;;32.08;;
1014;SDS011;8170;48.118;11.628;2022-12-10T04:54:43;52.45;;;30.23;;
1014;SDS011;8170;48.118;11.628;2022-12-10T04:55:47;49.10;;;30.17;;
1014;SDS011;8170;48.118;11.628;2022-12-10T04:56:55;59.72;;;32.63;;
1014;SDS011;8170;48.118;11.628;2022-12-10T04:58:01;61.13;;;31.33;;
1014;SDS011;8170;48.118;11.628;2022-12-10T04:59:06;50.20;;;30.45;;
1014;SDS011;8170;48.118;11.628;2022-12-10T05:00:15;51.47;;;30.73;;
1014;SDS011;8170;48.118;11.628;2022-12-10T05:01:21;56.08;;;31.98;;
1014;SDS011;8170;48.118;11.628;2022-12-10T05:02:25;54.15;;;31.52;;
1014;SDS011;8170;48.118;11.628;2022-12-10T05:03:31;51.72;;;29.73;;
1014;SDS011;8170;48.118;11.628;2022-12-10T05:04:36;60.08;;;31.60;;
1014;SDS011;8170;48.118;11.628;2022-12-10T05:07:14;54.28;;;32.65;;
1014;SDS011;8170;48.118;11.628;2022-12-10T05:08:19;52.35;;;30.40;;
1014;SDS011;8170;48.118;11.628;2022-12-10T05:09:25;60.20;;;33.22;;
1014;SDS011;8170;48.118;11.628;2022-12-10T05:10:27;60.45;;;35.92;;
1014;SDS011;8170;48.118;11.628;2022-12-10T05:11:35;59.60;;;33.03;;
1014;SDS011;8170;48.118;11.628;2022-12-10T05:12:40;60.58;;;33.72;;
1014;SDS011;8170;48.118;11.628;2022-12-10T05:13:45;54.72;;;32.38;;
1014;SDS011;8170;48.118;11.628;2022-12-10T05:14:47;57.53;;;33.97;;
1014;SDS011;8170;48.118;11.628;2022-12-10T05:15:54;55.45;;;34.53;;
1014;SDS011;8170;48.118;11.628;2022-12-10T05:16:56;60.58;;;32.08;;
1014;SDS011;8170;48.118;11.628;2022-12-10T05:18:00;57.00;;;33.88;;
1014;SDS011;8170;48.118;11.628;2022-12-10T05:19:02;52.50;;;32.30;;
1014;SDS011;8170;48.118;11.628;2022-12-10T05:20:08;62.38;;;34.17;;
1014;SDS011;8170;48.118;11.628;2022-12-10T05:21:13;55.75;;;32.63;;
1014;SDS011;8170;48.118;11.628;2022-12-10T05:22:38;62.75;;;35.30;;
1014;SDS011;8170;48.118;11.628;2022-12-10T05:23:59;54.00;;;34.35;;
1014;SDS011;8170;48.118;11.628;2022-12-10T05:25:04;52.05;;;32.70;;
1014;SDS011;8170;48.118;11.628;2022-12-10T05:26:09;49.95;;;33.70;;
1014;SDS011;8170;48.118;11.628;2022-12-10T05:27:15;52.60;;;32.53;;
1014;SDS011;8170;48.118;11.628;2022-12-10T05:28:25;59.90;;;34.88;;
1014;SDS011;8170;48.118;11.628;2022-12-10T05:29:28;57.72;;;35.50;;
1014;SDS011;8170;48.118;11.628;2022-12-10T05:30:37;53.80;;;32.67;;
1014;SDS011;8170;48.118;11.628;2022-12-10T05:31:55;58.20;;;33.08;;
1014;SDS011;8170;48.118;11.628;2022-12-10T05:32:59;57.63;;;33.85;;
1014;SDS011;8170;48.118;11.628;2022-12-10T05:34:26;61.08;;;35.22;;
1014;SDS011;8170;48.118;11.628;2022-12-10T05:35:34;53.85;;;33.13;;
1014;SDS011;8170;48.118;11.628;2022-12-10T05:36:37;55.10;;;34.40;;
1014;SDS011;8170;48.118;11.628;2022-12-10T05:37:45;53.00;;;33.75;;
1014;SDS011;8170;48.118;11.628;2022-12-10T05:38:48;52.85;;;33.20;;
1014;SDS011;8170;48.118;11.628;2022-12-10T05:39:55;60.88;;;35.08;;
1014;SDS011;8170;48.118;11.628;2022-12-10T05:41:02;52.58;;;33.50;;
1014;SDS011;8170;48.118;11.628;2022-12-10T05:42:06;52.35;;;32.22;;
1014;SDS011;8170;48.118;11.628;2022-12-10T05:43:09;57.53;;;33.58;;
1014;SDS011;8170;48.118;11.628;2022-12-10T05:44:18;55.50;;;33.30;;
1014;SDS011;8170;48.118;11.628;2022-12-10T05:45:24;54.30;;;32.55;;
1014;SDS011;8170;48.118;11.628;2022-12-10T05:46:27;58.47;;;35.30;;
1014;SDS011;8170;48.118;11.628;2022-12-10T05:47:34;54.88;;;34.03;;
1014;SDS011;8170;48.118;11.628;2022-12-10T05:48:37;52.50;;;33.80;;
1014;SDS011;8170;48.118;11.628;2022-12-10T05:49:51;58.97;;;34.42;;
1014;SDS011;8170;48.118;11.628;2022-12-10T05:51:02;56.28;;;34.22;;
1014;SDS011;8170;48.118;11.628;2022-12-10T05:52:12;58.05;;;35.22;;
1014;SDS011;8170;48.118;11.628;2022-12-10T05:53:25;62.15;;;37.63;;
1014;SDS011;8170;48.118;11.628;2022-12-10T05:54:28;67.22;;;38.65;;
1014;SDS011;8170;48.118;11.628;2022-12-10T05:55:34;55.72;;;36.03;;
1014;SDS011;8170;48.118;11.628;2022-12-10T05:56:37;48.70;;;33.70;;
1014;SDS011;8170;48.118;11.628;2022-12-10T05:57:47;56.00;;;35.45;;
1014;SDS011;8170;48.118;11.628;2022-12-10T05:58:49;58.33;;;35.90;;
1014;SDS011;8170;48.118;11.628;2022-12-10T05:59:55;52.70;;;34.20;;
1014;SDS011;8170;48.118;11.628;2022-12-10T06:01:05;58.00;;;35.50;;
1014;SDS011;8170;48.118;11.628;2022-12-10T06:02:33;55.97;;;35.35;;
1014;SDS011;8170;48.118;11.628;2022-12-10T06:03:57;55.42;;;35.83;;
1014;SDS011;8170;48.118;11.628;2022-12-10T06:04:59;52.85;;;34.72;;
1014;SDS011;8170;48.118;11.628;2022-12-10T06:06:06;54.72;;;36.70;;
1014;SDS011;8170;48.118;11.628;2022-12-10T06:07:12;58.20;;;34.85;;
1014;SDS011;8170;48.118;11.628;2022-12-10T06:08:23;55.88;;;34.95;;
1014;SDS011;8170;48.118;11.628;2022-12-10T06:09:34;53.85;;;34.00;;
1014;SDS011;8170;48.118;11.628;2022-12-10T06:10:53;57.72;;;36.03;;
1014;SDS011;8170;48.118;11.628;2022-12-10T06:11:56;54.72;;;35.80;;
1014;SDS011;8170;48.118;11.628;2022-12-10T06:12:59;59.17;;;37.35;;
1014;SDS011;8170;48.118;11.628;2022-12-10T06:14:06;57.55;;;38.65;;
1014;SDS011;8170;48.118;11.628;2022-12-10T06:15:13;52.70;;;34.33;;
1014;SDS011;8170;48.118;11.628;2022-12-10T06:16:20;51.05;;;33.35;;
1014;SDS011;8170;48.118;11.628;2022-12-10T06:17:24;62.13;;;38.35;;
1014;SDS011;8170;48.118;11.628;2022-12-10T06:18:35;53.88;;;35.10;;
1014;SDS011;8170;48.118;11.628;2022-12-10T06:19:53;57.38;;;35.55;;
1014;SDS011;8170;48.118;11.628;2022-12-10T06:20:56;53.88;;;37.67;;
1014;SDS011;8170;48.118;11.628;2022-12-10T06:22:15;56.30;;;37.00;;
1014;SDS011;8170;48.118;11.628;2022-12-10T06:23:23;57.28;;;37.58;;
1014;SDS011;8170;48.118;11.628;2022-12-10T06:24:26;60.80;;;36.35;;
1014;SDS011;8170;48.118;11.628;2022-12-10T06:25:37;58.03;;;37.30;;
1014;SDS011;8170;48.118;11.628;2022-12-10T06:26:46;53.97;;;34.05;;
1014;SDS011;8170;48.118;11.628;2022-12-10T06:27:54;61.65;;;36.25;;
1014;SDS011;8170;48.118;11.628;2022-12-10T06:28:57;53.17;;;35.92;;
1014;SDS011;8170;48.118;11.628;2022-12-10T06:29:59;57.78;;;36.70;;
1014;SDS011;8170;48.118;11.628;2022-12-10T06:31:06;62.50;;;39.40;;
1014;SDS011;8170;48.118;11.628;2022-12-10T06:32:09;58.30;;;35.25;;
1014;SDS011;8170;48.118;11.628;2022-12-10T06:33:16;61.03;;;37.65;;
1014;SDS011;8170;48.118;11.628;2022-12-10T06:34:18;54.55;;;35.03;;
1014;SDS011;8170;48.118;11.628;2022-12-10T06:35:24;65.68;;;38.80;;
1014;SDS011;8170;48.118;11.628;2022-12-10T06:36:26;65.00;;;38.70;;
1014;SDS011;8170;48.118;11.628;2022-12-10T06:37:34;58.55;;;36.80;;
1014;SDS011;8170;48.118;11.628;2022-12-10T06:38:36;54.00;;;35.42;;
1014;SDS011;8170;48.118;11.628;2022-12-10T06:39:43;53.88;;;34.35;;
1014;SDS011;8170;48.118;11.628;2022-12-10T06:40:48;64.97;;;39.30;;
1014;SDS011;8170;48.118;11.628;2022-12-10T06:41:55;55.22;;;35.25;;
1014;SDS011;8170;48.118;11.628;2022-12-10T06:42:59;54.72;;;36.53;;
1014;SDS011;8170;48.118;11.628;2022-12-10T06:44:06;61.40;;;37.88;;
1014;SDS011;8170;48.118;11.628;2022-12-10T06:45:11;53.00;;;35.55;;
1014;SDS011;8170;48.118;11.628;2022-12-10T06:46:15;65.90;;;38.65;;
1014;SDS011;8170;48.118;11.628;2022-12-10T06:47:20;54.92;;;38.17;;
1014;SDS011;8170;48.118;11.628;2022-12-10T06:48:24;52.22;;;35.60;;
1014;SDS011;8170;48.118;11.628;2022-12-10T06:49:26;50.95;;;33.90;;